Database: COMPET-N - COOP - 3PL - 4PL - CNDOOM

WAD: Doom | Doom 2 | TNT | Plutonia | AV | HR | Scythe | MM | MM2 | Requiem | CE
Category: speed | nmare | max | nm100s | tyson | pacifist | fast | respawn | nomo | misc | built | all
Highscore: ALL | IWAD | PWAD | Country | Continent

Remove: wad | map | category | player | all
MapPlayerTimeDateFilenameCommentsDL
MAP01: EntrywayJim Leonard40.002006-06-07fa01-040.zip - 421
MAP01: The GatewayJim Leonard40.002004-04-14rf01-040.zip - 353
MAP01: EntrywayJim Leonard44.002006-06-07fa01-044.zip - 336
MAP01: System ControlJim Leonard49.002005-07-25ef01-049.zip - 376
MAP20: The Forsaken HallJim Leonard53.002001-09-01rf20-053.zip - 142
MAP01: System ControlJim Leonard54.002002-10-11ef01-054.zip - 295
E3M1: Hell KeepJim Leonard1:10.002006-03-16f3m1-110.zip - 194
MAP02: The Feeding PitJim Leonard1:19.002002-04-29m202f119.zip - 137
MAP02: SacrificiumJim Leonard1:20.002004-04-14rf02-120.zip - 141
MAP26: ExcoriationJim Leonard1:53.002002-04-12rf26-153.zip - 115
E4M4: Unruly EvilJim Leonard1:53.002013-03-26f4m4-153.zip - 227
MAP30: NevermoreJim Leonard2:09.002002-06-23rf30-209.zip - 122
MAP02: SacrificiumJim Leonard2:20.002001-06-21rf02-220.zip - 127
E4M1: Hell BeneathJim Leonard2:23.002013-03-27f4m1-223.zip - 509
MAP01: CongoJim Leonard2:42.002002-04-16pf01-242.zip - 311
MAP11: HuntedJim Leonard2:45.002006-06-16pf11-245.zip - 144
MAP02: Well of SoulsJim Leonard2:55.002002-08-17pf02-255.zip - 233
MAP05: Ghost TownJim Leonard3:07.002002-09-30pf05-307.zip - 219
MAP10: RedemptionJim Leonard3:34.002002-08-03ef10-334.zip - 153
MAP02: Well of SoulsJim Leonard3:37.002002-04-16pf02-337.zip - 133
E2M2: Containment AreaJim Leonard3:47.002003-06-18f2m2-347.zip - 145
MAP05: Ghost TownJim Leonard3:52.002002-04-17pf05-352.zip - 152
MAP31: Doorway to QuakeJim Leonard3:53.002002-04-13rf31-353.zip - 118
MAP32: Bitter HerbJim Leonard3:56.002002-04-12rf32-356.zip - 108
MAP05: HangerJim Leonard4:13.342018-11-04ef05-413.zip - 114
MAP31: CyberdenJim Leonard4:57.002006-06-10pf31-457.zip - 212
MAP11: Storage FacilityJim Leonard5:04.002002-10-11ef11-504.zip - 136
MAP03: Power ControlJim Leonard5:07.002002-03-12ef03-507.zip - 158
E2M6: Halls Of The DamnedJim Leonard5:13.002003-05-27f2m6-513.zip - 218
MAP04: CagedJim Leonard5:13.002002-09-30pf04-513.zip - 146
MAP03: AztecJim Leonard5:16.002002-09-30pf03-516.zip - 172
E2M4: Deimos LabJim Leonard5:19.002003-05-26f2m4-519.zip - 159
MAP07: ArachnophobiaJim Leonard5:22.002002-01-07hf07-522.zip - 124
MAP03: ...And Hell BeneathJim Leonard5:28.662018-12-29m203f528.zip - 110
MAP02: Human BBQJim Leonard5:42.002005-08-01ef02-542.zip - 250
MAP06: Open SeasonJim Leonard5:42.002001-08-29ef06-542.zip - 144
E2M4: Deimos LabJim Leonard5:43.002002-05-21f2m4-543.zip - 164
E2M6: Halls Of The DamnedJim Leonard5:46.002002-09-22f2m6-546.zip - 169
MAP05: HangerJim Leonard6:00.002002-03-12ef05-600.zip - 142
MAP03: AztecJim Leonard6:02.002002-08-10pf03-602.zip - 143
MAP13: Nukage ProcessingJim Leonard6:05.002002-10-12ef13-605.zip - 158
E2M5: Command CenterJim Leonard6:10.002002-09-22f2m5-610.zip - 150
MAP11: Rats in the WallsJim Leonard6:12.002001-08-25rf11-612.zip - 122
MAP08: RealmJim Leonard6:14.002002-09-11pf08-614.zip - 201
MAP03: AztecJim Leonard6:30.002002-04-16pf03-630.zip - 151
MAP14: Steel WorksJim Leonard6:56.002002-10-12ef14-656.zip - 205
MAP04: FireworksJim Leonard6:59.002002-05-01rf04-659.zip - 201
MAP04: CagedJim Leonard7:04.002002-04-17pf04-704.zip - 156
MAP07: Hells GiftJim Leonard7:11.002001-08-23rf07-711.zip - 117
MAP08: MetalJim Leonard7:13.002002-10-10ef08-713.zip - 198
MAP07: FrustrationJim Leonard7:34.232018-12-05m207f734.zip - 82
MAP09: AbattoireJim Leonard7:49.002002-09-10pf09-749.zip - 203
MAP10: The Black GateJim Leonard7:51.002001-07-17rf10-751.zip - 148
MAP16: Deepest ReachesJim Leonard8:01.002002-01-19ef16-801.zip - 142
MAP19: Shipping/RespawningJim Leonard8:21.002003-01-09ef19-821.zip - 175
MAP04: WormholeJim Leonard8:25.002002-10-11ef04-825.zip - 165
MAP02: Human BBQJim Leonard8:44.002001-08-29ef02-844.zip - 176
MAP09: Deep Down BelowJim Leonard10:32.002001-07-12rf091032.zip - 124
MAP23: Blood SacrificeJim Leonard10:35.002006-05-21af231035.zip - 225
MAP09: StrongholdJim Leonard10:37.002001-08-29ef091037.zip - 145
MAP29: Odyssey of NoisesJim Leonard10:55.002006-06-19pf291055.zip - 201
MAP04: FireworksJim Leonard10:59.002001-06-22rf041059.zip - 162
MAP03: Poison ProcessingJim Leonard11:01.002001-06-21rf031101.zip - 175
MAP13: Town of the DeadJim Leonard11:23.002001-12-17rf131123.zip - 193
MAP12: Militant ReprisalJim Leonard11:45.002002-07-01rf121145.zip - 209
MAP09: KnockoutJim Leonard12:39.002002-01-08hf091239.zip - 200
MAP07: PrisonJim Leonard12:44.002002-10-12ef071244.zip - 203
MAP14: The PortalJim Leonard13:05.002002-06-23rf141305.zip - 192
MAP06: nataS ot etubirTJim Leonard13:38.002002-07-11rf061338.zip - 211
MAP16: Escape from ChaosJim Leonard13:47.002002-06-21rf161347.zip - 187
MAP08: The ReactorJim Leonard18:19.002001-08-23rf081819.zip - 131
MAP05: The CanyonJim Leonard21:04.002001-06-27rf052104.zip - 160
MAP20: Misri HalekJim Leonard31:20.002006-05-06af203120.zip - 217
Remove: wad | map | category | player | all